Green Valley, West Virginia
Current Conditions -  °F | °C
As of 8:35 PM on Wednesday 26 Nov 2014 (Local Time) from KBLF Reporting Station
Haze Haze  
Wind Chill: 29°   Ceiling: Unl
Heat Index: 33°   Visibility: 3mi
Dew Point: 30°   Wind: 5mph
Humidity: 89%   Direction: 260°W
Pressure: 29.97"   Gusts: NA
Location:  37.2994°N, 81.226°W
Report Text: KBLF 270135Z AUTO 26004KT 3SM BR FEW004 FEW050 01/M01 A2997 RMK AO2 I1000 T00061011
Loading
Personal Weather Stations






























Interactive Weather Map New forecast layout! Learn more

10-Day Weather Forecast

Advertisements
Track Severe Weather on mobile